Time;durP1;ratioP1;P1;durP2;ratioP2;P2;SDS_P1;SDS_P2;PMS_P1;PMS_P2;Temp;Humidity;BMP_temperature;BMP_pressure;BME280_temperature;BME280_humidity;BME280_pressure;Samples;Min_cycle;Max_cycle;Signal;HPM_P1;HPM_P2
2022/03/06 06:56:03;;;;;;;22.40;12.30;;;;;;;;;;6212849;22;20044;-90
2022/03/06 06:58:29;;;;;;;23.60;12.85;;;;;;;;;;6217191;23;20008;-91
2022/03/06 07:00:54;;;;;;;21.90;13.77;;;;;;;;;;6211953;23;20416;-90
2022/03/06 07:03:20;;;;;;;21.85;13.25;;;;;;;;;;6215171;23;20423;-90
2022/03/06 07:05:47;;;;;;;22.90;13.60;;;;;;;;;;6190378;23;20005;-89
2022/03/06 07:08:13;;;;;;;22.75;13.50;;;;;;;;;;6215176;23;20008;-90
2022/03/06 07:10:38;;;;;;;21.60;13.15;;;;;;;;;;6215379;23;20103;-89
2022/03/06 07:13:03;;;;;;;22.05;12.82;;;;;;;;;;6214915;23;20012;-88
2022/03/06 07:15:32;;;;;;;24.70;12.80;;;;;;;;;;6216668;23;20012;-90
2022/03/06 10:17:35;;;;;;;18.67;11.75;;;;;;;;;;6238729;22;20877;-90
2022/03/06 10:20:09;;;;;;;19.55;11.63;;;;;;;;;;6220355;23;20051;-92
2022/03/06 10:22:37;;;;;;;19.13;11.05;;;;;;;;;;6220780;23;20019;-91
2022/03/06 10:25:16;;;;;;;18.90;12.15;;;;;;;;;;6236581;22;20003;-90
2022/03/06 10:27:53;;;;;;;19.17;11.50;;;;;;;;;;6251112;22;20010;-90
2022/03/06 10:30:38;;;;;;;23.17;12.73;;;;;;;;;;6251112;22;20000;-91
2022/03/06 10:33:10;;;;;;;19.88;12.10;;;;;;;;;;6251507;22;20008;-91
2022/03/06 10:35:36;;;;;;;19.42;12.55;;;;;;;;;;6250970;22;20079;-92
2022/03/06 10:38:16;;;;;;;22.27;13.15;;;;;;;;;;6251580;22;20004;-92
2022/03/06 10:40:41;;;;;;;;;;;;;;;;;;6251557;22;20065;-90
2022/03/06 10:43:30;;;;;;;23.35;12.77;;;;;;;;;;6252392;22;19908;-90
2022/03/06 10:46:11;;;;;;;21.75;13.77;;;;;;;;;;6254076;22;20004;-91
2022/03/06 10:48:40;;;;;;;19.75;13.15;;;;;;;;;;6254328;22;20529;-91
2022/03/06 10:51:11;;;;;;;21.00;13.07;;;;;;;;;;6251701;22;20011;-91
2022/03/06 10:53:37;;;;;;;20.73;13.20;;;;;;;;;;6252810;22;20419;-92
2022/03/06 10:56:14;;;;;;;21.90;12.40;;;;;;;;;;6253038;22;20011;-91
2022/03/06 10:58:46;;;;;;;20.55;12.95;;;;;;;;;;6252922;22;20433;-90
2022/03/06 11:01:12;;;;;;;19.80;12.40;;;;;;;;;;6253032;22;20008;-93
2022/03/06 11:03:38;;;;;;;18.67;13.00;;;;;;;;;;6252681;22;20000;-90
2022/03/06 11:06:04;;;;;;;19.45;11.82;;;;;;;;;;6252762;22;20445;-92
2022/03/06 11:08:30;;;;;;;19.83;12.27;;;;;;;;;;6253113;22;20091;-94
2022/03/06 11:10:57;;;;;;;16.80;11.50;;;;;;;;;;6252854;22;20010;-90
2022/03/06 11:13:23;;;;;;;18.80;12.52;;;;;;;;;;6252775;22;20323;-90
2022/03/06 11:15:49;;;;;;;16.60;10.98;;;;;;;;;;6252569;22;20035;-92
2022/03/06 11:18:15;;;;;;;22.05;12.65;;;;;;;;;;6253709;22;20011;-91
2022/03/06 11:20:43;;;;;;;19.35;12.25;;;;;;;;;;6253097;22;20004;-91
2022/03/06 11:23:26;;;;;;;20.85;12.38;;;;;;;;;;6252438;22;20035;-90
2022/03/06 11:26:17;;;;;;;16.50;12.02;;;;;;;;;;6252760;22;20083;-95
2022/03/06 11:29:13;;;;;;;18.05;12.00;;;;;;;;;;6184517;22;20015;-90
2022/03/06 11:31:52;;;;;;;18.88;12.13;;;;;;;;;;6190250;22;20090;-89
2022/03/06 11:34:38;;;;;;;21.73;12.30;;;;;;;;;;6252040;22;20011;-91
2022/03/06 11:37:16;;;;;;;19.15;11.75;;;;;;;;;;6252087;22;20331;-91
2022/03/06 11:39:42;;;;;;;20.58;12.70;;;;;;;;;;6253008;22;20065;-91
2022/03/06 11:42:09;;;;;;;19.73;12.82;;;;;;;;;;6278888;22;20102;-89
2022/03/06 11:44:40;;;;;;;18.48;12.88;;;;;;;;;;6251648;22;20003;-89
2022/03/06 11:47:21;;;;;;;19.50;13.20;;;;;;;;;;6251811;22;20069;-93
2022/03/06 11:49:59;;;;;;;20.13;12.80;;;;;;;;;;6252409;22;20441;-90
2022/03/06 11:52:36;;;;;;;19.77;12.15;;;;;;;;;;6252210;22;20000;-89
2022/03/06 11:55:23;;;;;;;15.68;11.00;;;;;;;;;;6251926;22;19999;-91
2022/03/06 11:57:50;;;;;;;19.27;12.07;;;;;;;;;;6251938;22;20088;-90
2022/03/06 12:00:24;;;;;;;19.98;12.10;;;;;;;;;;6252262;22;20045;-89
2022/03/06 12:02:56;;;;;;;20.65;11.93;;;;;;;;;;6251552;22;20012;-89
2022/03/06 12:05:42;;;;;;;17.98;11.68;;;;;;;;;;6251884;22;20008;-89
2022/03/06 12:08:11;;;;;;;18.30;11.77;;;;;;;;;;6251765;22;20049;-89
2022/03/06 12:10:37;;;;;;;20.63;12.00;;;;;;;;;;6251387;22;20066;-89
2022/03/06 12:13:03;;;;;;;18.60;12.43;;;;;;;;;;6251673;22;20014;-90
2022/03/06 12:15:29;;;;;;;19.08;12.65;;;;;;;;;;6251971;22;20331;-93
2022/03/06 12:18:04;;;;;;;19.63;12.38;;;;;;;;;;6252122;22;20003;-95
2022/03/06 12:20:42;;;;;;;20.75;12.38;;;;;;;;;;6258809;22;20073;-93
2022/03/06 12:23:27;;;;;;;15.95;11.57;;;;;;;;;;6264332;22;20018;-93
2022/03/06 12:25:55;;;;;;;18.08;12.15;;;;;;;;;;6231531;22;20011;-91
2022/03/06 12:28:23;;;;;;;20.65;13.07;;;;;;;;;;6251997;22;20004;-94
2022/03/06 12:30:49;;;;;;;20.60;13.23;;;;;;;;;;6252070;22;20093;-91
2022/03/06 12:33:31;;;;;;;17.42;12.43;;;;;;;;;;6252054;22;20004;-93
2022/03/06 12:36:08;;;;;;;19.23;12.57;;;;;;;;;;6252053;22;20122;-95
2022/03/06 12:38:34;;;;;;;20.80;14.48;;;;;;;;;;6252423;22;20112;-94
2022/03/06 12:41:00;;;;;;;19.70;13.38;;;;;;;;;;6252054;22;20031;-92
2022/03/06 12:43:26;;;;;;;19.10;13.18;;;;;;;;;;6252300;22;20019;-93
2022/03/06 12:45:52;;;;;;;19.17;13.77;;;;;;;;;;6251838;22;20011;-91
2022/03/06 12:48:17;;;;;;;18.85;13.15;;;;;;;;;;6252020;22;19997;-91
2022/03/06 12:50:43;;;;;;;19.30;13.43;;;;;;;;;;6252268;22;20102;-93
2022/03/06 12:53:09;;;;;;;19.65;13.65;;;;;;;;;;6251881;22;20423;-92
2022/03/06 12:55:34;;;;;;;15.93;12.27;;;;;;;;;;6251625;22;20004;-92
2022/03/06 12:58:00;;;;;;;17.40;13.05;;;;;;;;;;6251752;22;20007;-92
2022/03/06 13:00:33;;;;;;;16.23;12.50;;;;;;;;;;6252139;22;20084;-92
2022/03/06 13:03:12;;;;;;;18.90;13.98;;;;;;;;;;6251811;22;20090;-93
2022/03/06 13:05:38;;;;;;;17.80;12.65;;;;;;;;;;6251624;22;20007;-93
2022/03/06 13:08:05;;;;;;;20.55;13.93;;;;;;;;;;6251666;22;20035;-91
2022/03/06 13:10:31;;;;;;;19.02;12.43;;;;;;;;;;6251780;22;20010;-92
2022/03/06 13:12:58;;;;;;;17.75;12.65;;;;;;;;;;6252111;22;20008;-92
2022/03/06 13:15:29;;;;;;;17.05;11.75;;;;;;;;;;6251637;22;20034;-92
2022/03/06 13:18:05;;;;;;;17.63;11.73;;;;;;;;;;6251657;22;20068;-92
2022/03/06 13:20:34;;;;;;;16.40;11.80;;;;;;;;;;6251970;22;20007;-93
2022/03/06 13:23:00;;;;;;;17.80;12.25;;;;;;;;;;6251550;22;20011;-91
2022/03/06 13:25:27;;;;;;;16.13;11.00;;;;;;;;;;6251754;22;20008;-92
2022/03/06 13:27:53;;;;;;;18.33;11.35;;;;;;;;;;6252260;22;19995;-92
2022/03/06 13:30:24;;;;;;;17.08;11.48;;;;;;;;;;6252539;22;20004;-93
2022/03/06 13:32:55;;;;;;;16.75;11.88;;;;;;;;;;6253296;22;20010;-91
2022/03/06 13:35:34;;;;;;;18.02;11.20;;;;;;;;;;6252833;22;20047;-91
2022/03/06 13:38:03;;;;;;;17.05;10.95;;;;;;;;;;6253458;22;20008;-93
2022/03/06 13:40:30;;;;;;;17.63;11.18;;;;;;;;;;6253957;22;20010;-91
2022/03/06 13:42:58;;;;;;;17.13;11.50;;;;;;;;;;6253451;22;20003;-92
2022/03/06 13:45:23;;;;;;;19.60;12.75;;;;;;;;;;6256630;22;19999;-92
2022/03/06 13:47:57;;;;;;;17.40;11.20;;;;;;;;;;6260909;22;20042;-91
2022/03/06 13:50:37;;;;;;;20.77;11.88;;;;;;;;;;6263083;22;20423;-93
2022/03/06 13:53:05;;;;;;;17.80;11.50;;;;;;;;;;6256149;22;20439;-93
2022/03/06 13:55:32;;;;;;;16.92;11.00;;;;;;;;;;6253258;22;20338;-93
2022/03/06 13:58:09;;;;;;;20.30;11.85;;;;;;;;;;6252719;22;20081;-91
2022/03/06 14:00:52;;;;;;;21.92;13.75;;;;;;;;;;6252006;22;20048;-92
2022/03/06 14:03:26;;;;;;;18.73;12.32;;;;;;;;;;6251916;22;20422;-92
2022/03/06 14:05:54;;;;;;;20.23;12.07;;;;;;;;;;6251950;22;20003;-92
2022/03/06 14:08:25;;;;;;;22.08;11.93;;;;;;;;;;6251786;22;20038;-90
2022/03/06 14:10:56;;;;;;;19.52;12.27;;;;;;;;;;6251021;22;20481;-89
2022/03/06 14:13:37;;;;;;;18.52;11.77;;;;;;;;;;6251063;22;20004;-90
2022/03/06 14:16:07;;;;;;;18.92;11.23;;;;;;;;;;6251426;22;20036;-87
2022/03/06 14:18:48;;;;;;;17.35;12.35;;;;;;;;;;6250911;22;20015;-91
2022/03/06 14:21:30;;;;;;;17.25;11.50;;;;;;;;;;6250873;22;20095;-90
2022/03/06 14:23:56;;;;;;;20.75;12.13;;;;;;;;;;6251644;22;20004;-89
2022/03/06 14:26:27;;;;;;;18.77;12.32;;;;;;;;;;6251602;22;20031;-90
2022/03/06 14:29:02;;;;;;;18.60;11.77;;;;;;;;;;6253218;22;20018;-90
2022/03/06 14:31:29;;;;;;;22.60;12.43;;;;;;;;;;6252382;22;19999;-89
2022/03/06 14:33:55;;;;;;;20.95;12.98;;;;;;;;;;6253104;22;20098;-92
2022/03/06 14:36:21;;;;;;;17.83;11.35;;;;;;;;;;6252967;22;20426;-91
2022/03/06 14:38:47;;;;;;;20.20;11.95;;;;;;;;;;6252956;22;20431;-92
2022/03/06 14:41:15;;;;;;;16.10;11.23;;;;;;;;;;6253004;22;20008;-92
2022/03/06 14:43:41;;;;;;;19.52;11.68;;;;;;;;;;6252818;22;20081;-90
2022/03/06 14:46:10;;;;;;;17.30;11.15;;;;;;;;;;6252835;22;20011;-89
2022/03/06 14:48:36;;;;;;;18.75;12.07;;;;;;;;;;6279312;22;20425;-89
2022/03/06 14:51:02;;;;;;;18.70;12.07;;;;;;;;;;6252522;22;20006;-89
2022/03/06 14:53:31;;;;;;;17.15;10.93;;;;;;;;;;6252712;22;19999;-91
2022/03/06 14:55:56;;;;;;;17.70;11.10;;;;;;;;;;6253103;22;20000;-92
2022/03/06 14:58:22;;;;;;;15.45;10.50;;;;;;;;;;6253248;22;20034;-93
2022/03/06 15:00:48;;;;;;;20.80;12.10;;;;;;;;;;6252951;22;20010;-91
2022/03/06 15:03:14;;;;;;;18.40;10.80;;;;;;;;;;6253193;22;20422;-93
2022/03/06 15:05:39;;;;;;;17.33;9.77;;;;;;;;;;6253449;22;20122;-92
2022/03/06 15:08:05;;;;;;;18.10;10.93;;;;;;;;;;6252828;22;20015;-93
2022/03/06 15:10:30;;;;;;;18.63;11.82;;;;;;;;;;6252901;22;20008;-92
2022/03/06 15:12:56;;;;;;;19.00;12.43;;;;;;;;;;6252969;22;20431;-91
2022/03/06 15:15:22;;;;;;;19.02;12.27;;;;;;;;;;6253217;22;20324;-92
2022/03/06 15:17:47;;;;;;;17.20;10.52;;;;;;;;;;6252680;22;20327;-90
2022/03/06 15:20:13;;;;;;;17.38;11.57;;;;;;;;;;6252747;22;20442;-89
2022/03/06 15:22:38;;;;;;;18.45;11.90;;;;;;;;;;6251925;22;20423;-89
2022/03/06 15:25:04;;;;;;;20.00;12.35;;;;;;;;;;6251981;22;20004;-89
2022/03/06 15:27:31;;;;;;;17.83;12.60;;;;;;;;;;6252446;22;20004;-90
2022/03/06 15:29:56;;;;;;;19.58;12.35;;;;;;;;;;6252429;22;20008;-91
2022/03/06 15:32:22;;;;;;;17.52;11.40;;;;;;;;;;6254378;22;20081;-90
2022/03/06 15:34:47;;;;;;;18.00;10.93;;;;;;;;;;6253869;22;20404;-91
2022/03/06 15:37:15;;;;;;;19.33;11.75;;;;;;;;;;6252713;22;20007;-91
2022/03/06 15:39:42;;;;;;;18.02;11.27;;;;;;;;;;6278817;22;19999;-88
2022/03/06 15:42:07;;;;;;;20.17;12.25;;;;;;;;;;6278636;22;20008;-87
2022/03/06 15:44:33;;;;;;;18.58;11.15;;;;;;;;;;6251710;22;20030;-90
2022/03/06 15:46:58;;;;;;;18.23;10.93;;;;;;;;;;6252292;22;20011;-89
2022/03/06 15:49:24;;;;;;;18.60;11.70;;;;;;;;;;6252057;22;20057;-89
2022/03/06 15:51:49;;;;;;;16.95;10.32;;;;;;;;;;6252001;22;20081;-89
2022/03/06 15:54:15;;;;;;;18.05;11.50;;;;;;;;;;6252008;22;20038;-88
2022/03/06 15:56:41;;;;;;;18.23;10.85;;;;;;;;;;6251713;22;20014;-88
2022/03/06 15:59:07;;;;;;;18.50;11.07;;;;;;;;;;6251585;22;20003;-89
2022/03/06 16:01:32;;;;;;;20.80;11.98;;;;;;;;;;6251470;22;20059;-88
2022/03/06 16:03:58;;;;;;;23.25;12.35;;;;;;;;;;6251586;22;20490;-88
2022/03/06 16:06:24;;;;;;;21.10;12.93;;;;;;;;;;6251547;22;19999;-89
2022/03/06 16:08:50;;;;;;;20.83;12.57;;;;;;;;;;6251686;22;20415;-89
2022/03/06 16:11:16;;;;;;;20.85;11.73;;;;;;;;;;6278446;22;20008;-89
2022/03/06 16:13:43;;;;;;;20.02;11.30;;;;;;;;;;6251792;22;20253;-88
2022/03/06 16:16:08;;;;;;;19.60;11.32;;;;;;;;;;6251329;22;20011;-89
2022/03/06 16:18:34;;;;;;;18.13;11.70;;;;;;;;;;6251404;22;20016;-90
2022/03/06 16:20:59;;;;;;;19.58;12.48;;;;;;;;;;6251893;22;20093;-90
2022/03/06 16:23:24;;;;;;;20.13;12.63;;;;;;;;;;6253392;22;20112;-91
2022/03/06 16:25:50;;;;;;;20.27;12.48;;;;;;;;;;6251946;22;20004;-90
2022/03/06 16:28:19;;;;;;;21.65;12.70;;;;;;;;;;6252324;22;20004;-90
2022/03/06 16:30:45;;;;;;;22.77;13.07;;;;;;;;;;6252404;22;20008;-89
2022/03/06 16:33:10;;;;;;;27.83;16.17;;;;;;;;;;6252099;22;19996;-89
2022/03/06 16:35:36;;;;;;;19.70;12.68;;;;;;;;;;6278455;22;20134;-90
2022/03/06 16:38:01;;;;;;;17.33;11.35;;;;;;;;;;6252372;22;20087;-90
2022/03/06 16:40:27;;;;;;;18.45;12.02;;;;;;;;;;6252269;22;20007;-88
2022/03/06 16:42:52;;;;;;;21.35;13.07;;;;;;;;;;6278792;22;20079;-90
2022/03/06 16:45:18;;;;;;;19.13;11.55;;;;;;;;;;6252424;22;20058;-89
2022/03/06 16:47:43;;;;;;;21.23;12.25;;;;;;;;;;6252098;22;20007;-90
2022/03/06 16:50:09;;;;;;;20.88;13.23;;;;;;;;;;6251958;22;20108;-90
2022/03/06 16:52:34;;;;;;;19.98;12.15;;;;;;;;;;6251522;22;20004;-89
2022/03/06 16:55:01;;;;;;;21.23;13.10;;;;;;;;;;6252079;22;20004;-89
2022/03/06 16:57:27;;;;;;;20.38;12.50;;;;;;;;;;6279125;22;20323;-88
2022/03/06 16:59:53;;;;;;;19.35;12.02;;;;;;;;;;6251479;22;20007;-90
2022/03/06 17:02:18;;;;;;;17.98;12.70;;;;;;;;;;6251897;22;20019;-92
2022/03/06 17:04:44;;;;;;;21.83;12.98;;;;;;;;;;6252198;22;20335;-91
2022/03/06 17:07:10;;;;;;;19.58;12.18;;;;;;;;;;6252013;22;20044;-89
2022/03/06 17:09:36;;;;;;;19.00;12.80;;;;;;;;;;6252338;22;20011;-90
2022/03/06 17:12:03;;;;;;;16.98;11.52;;;;;;;;;;6253618;22;20000;-89
2022/03/06 17:14:29;;;;;;;17.38;11.85;;;;;;;;;;6251186;22;20008;-91
2022/03/06 17:16:56;;;;;;;22.88;12.93;;;;;;;;;;6252539;22;20431;-91
2022/03/06 17:19:22;;;;;;;20.77;11.52;;;;;;;;;;6251788;22;20011;-90
2022/03/06 17:21:48;;;;;;;20.88;12.77;;;;;;;;;;6251240;22;20094;-89
2022/03/06 17:24:14;;;;;;;18.58;12.07;;;;;;;;;;6278326;22;20002;-91
2022/03/06 17:26:40;;;;;;;20.17;12.18;;;;;;;;;;6251566;22;20031;-91
2022/03/06 17:29:06;;;;;;;21.40;13.52;;;;;;;;;;6252065;22;20014;-91
2022/03/06 17:31:32;;;;;;;23.40;13.18;;;;;;;;;;6252553;22;20008;-88
2022/03/06 17:33:58;;;;;;;21.58;13.35;;;;;;;;;;6251792;22;20414;-87
2022/03/06 17:36:24;;;;;;;21.70;12.52;;;;;;;;;;6250779;22;20367;-89
2022/03/06 17:38:51;;;;;;;20.30;13.05;;;;;;;;;;6251047;22;20027;-88
2022/03/06 17:41:17;;;;;;;22.25;13.05;;;;;;;;;;6250273;22;20007;-88
2022/03/06 17:43:48;;;;;;;22.73;14.30;;;;;;;;;;6250476;22;20083;-88
2022/03/06 17:46:15;;;;;;;22.83;13.35;;;;;;;;;;6278937;22;20053;-95
2022/03/06 17:48:40;;;;;;;21.27;13.50;;;;;;;;;;6255376;22;20053;-94
2022/03/06 17:51:06;;;;;;;23.92;13.85;;;;;;;;;;6254079;22;20008;-95
2022/03/06 17:53:32;;;;;;;22.75;13.63;;;;;;;;;;6253251;22;20008;-92
2022/03/06 17:55:58;;;;;;;23.05;13.57;;;;;;;;;;6253339;22;20007;-94
2022/03/06 17:58:24;;;;;;;23.52;15.48;;;;;;;;;;6257095;22;20060;-95
2022/03/06 18:00:49;;;;;;;21.88;14.63;;;;;;;;;;6259332;22;20423;-96
2022/03/06 18:03:15;;;;;;;22.35;13.52;;;;;;;;;;6264172;22;20010;-95
2022/03/06 18:05:42;;;;;;;21.88;13.15;;;;;;;;;;6269434;22;19988;-94
2022/03/06 18:08:09;;;;;;;23.23;14.05;;;;;;;;;;6265898;22;19999;-93
2022/03/06 18:10:35;;;;;;;25.42;13.50;;;;;;;;;;6246775;22;20021;-95
2022/03/06 18:13:00;;;;;;;23.85;13.65;;;;;;;;;;6255772;22;20095;-93
2022/03/06 18:15:26;;;;;;;24.85;14.68;;;;;;;;;;6253976;22;20004;-96
2022/03/06 18:17:52;;;;;;;23.80;13.85;;;;;;;;;;6260262;22;20007;-92
2022/03/06 18:20:17;;;;;;;20.50;12.80;;;;;;;;;;6258407;22;20011;-95
2022/03/06 18:22:43;;;;;;;25.92;13.52;;;;;;;;;;6292867;22;20035;-91
2022/03/06 18:25:10;;;;;;;22.52;13.10;;;;;;;;;;6266565;22;20011;-93
2022/03/06 18:27:37;;;;;;;20.05;12.05;;;;;;;;;;6267592;22;20051;-94
2022/03/06 18:30:04;;;;;;;20.13;12.48;;;;;;;;;;6233401;22;20007;-94
2022/03/06 18:32:29;;;;;;;22.77;12.32;;;;;;;;;;6256898;22;20012;-93
2022/03/06 18:34:55;;;;;;;21.08;12.90;;;;;;;;;;6254038;22;20458;-94
2022/03/06 18:37:20;;;;;;;22.77;12.88;;;;;;;;;;6263389;22;20031;-94
2022/03/06 18:39:46;;;;;;;21.65;12.80;;;;;;;;;;6264304;22;20014;-92
2022/03/06 18:42:11;;;;;;;20.75;12.65;;;;;;;;;;6266094;22;20004;-94
2022/03/06 18:44:37;;;;;;;21.33;12.63;;;;;;;;;;6264766;22;20335;-94
2022/03/06 18:47:03;;;;;;;24.48;15.23;;;;;;;;;;6265835;22;20079;-92
2022/03/06 18:49:30;;;;;;;21.77;13.40;;;;;;;;;;6264711;22;20090;-91
2022/03/06 18:51:56;;;;;;;22.85;14.60;;;;;;;;;;6264587;22;20076;-91
2022/03/06 18:54:22;;;;;;;22.40;12.90;;;;;;;;;;6263625;22;20026;-90
2022/03/06 18:56:48;;;;;;;19.75;12.55;;;;;;;;;;6257515;22;20065;-90
2022/03/06 18:59:13;;;;;;;21.25;13.25;;;;;;;;;;6252197;22;20011;-90
2022/03/06 19:01:39;;;;;;;19.90;12.63;;;;;;;;;;6252302;22;20057;-90
2022/03/06 19:04:06;;;;;;;24.02;14.20;;;;;;;;;;6252409;22;20008;-89
2022/03/06 19:06:32;;;;;;;21.95;13.25;;;;;;;;;;6252665;22;20000;-91
2022/03/06 19:08:58;;;;;;;24.77;14.73;;;;;;;;;;6252807;22;20355;-90
2022/03/06 19:11:24;;;;;;;31.85;14.05;;;;;;;;;;6252637;22;20050;-90
2022/03/06 19:13:49;;;;;;;23.25;13.90;;;;;;;;;;6254223;22;20004;-89
2022/03/06 19:16:17;;;;;;;21.15;12.52;;;;;;;;;;6254539;22;20375;-91
2022/03/06 19:18:44;;;;;;;21.58;12.90;;;;;;;;;;6249820;23;20093;-91
2022/03/06 19:21:10;;;;;;;25.02;14.00;;;;;;;;;;6249792;23;20008;-93
2022/03/06 19:23:36;;;;;;;21.63;13.15;;;;;;;;;;6249500;23;20008;-92
2022/03/06 19:26:03;;;;;;;27.00;13.38;;;;;;;;;;6250049;23;20004;-91
2022/03/06 19:28:29;;;;;;;20.85;12.60;;;;;;;;;;6249655;23;20420;-91
2022/03/06 19:30:54;;;;;;;21.42;13.88;;;;;;;;;;6249500;23;20087;-93
2022/03/06 19:33:20;;;;;;;23.92;14.20;;;;;;;;;;6248426;23;20270;-92
2022/03/06 19:35:45;;;;;;;21.20;13.30;;;;;;;;;;6248489;23;20444;-93
2022/03/06 19:38:11;;;;;;;23.63;14.07;;;;;;;;;;6247510;23;20023;-90
2022/03/06 19:40:37;;;;;;;24.48;13.93;;;;;;;;;;6247206;23;20039;-90
2022/03/06 19:43:03;;;;;;;22.88;13.07;;;;;;;;;;6248097;23;20012;-92
2022/03/06 19:45:29;;;;;;;21.83;12.82;;;;;;;;;;6247675;23;20000;-93
2022/03/06 19:47:55;;;;;;;24.88;14.45;;;;;;;;;;6247858;23;20430;-94
2022/03/06 19:50:21;;;;;;;23.17;14.63;;;;;;;;;;6247758;23;20035;-94
2022/03/06 19:52:47;;;;;;;28.60;15.73;;;;;;;;;;6247843;23;20012;-94
2022/03/06 19:55:13;;;;;;;24.45;13.95;;;;;;;;;;6247568;23;20010;-92
2022/03/06 19:57:39;;;;;;;28.85;16.65;;;;;;;;;;6247526;23;20397;-93
2022/03/06 20:00:07;;;;;;;24.77;14.00;;;;;;;;;;6247814;23;20008;-94
2022/03/06 20:02:34;;;;;;;24.00;13.52;;;;;;;;;;6247618;23;20012;-94
2022/03/06 20:05:00;;;;;;;24.20;13.35;;;;;;;;;;6247588;23;19996;-93
2022/03/06 20:07:25;;;;;;;23.27;13.43;;;;;;;;;;6247838;23;20004;-92
2022/03/06 20:09:52;;;;;;;21.73;12.77;;;;;;;;;;6247589;23;20000;-92
2022/03/06 20:12:21;;;;;;;23.50;13.65;;;;;;;;;;6247807;23;20004;-92
2022/03/06 20:14:47;;;;;;;25.40;14.88;;;;;;;;;;6247345;23;20062;-94
2022/03/06 20:17:13;;;;;;;26.58;15.38;;;;;;;;;;6247613;23;20007;-93
2022/03/06 20:19:38;;;;;;;61.03;29.05;;;;;;;;;;6247291;23;20071;-94
2022/03/06 20:22:04;;;;;;;88.38;41.40;;;;;;;;;;6247801;23;20035;-92
2022/03/06 20:24:30;;;;;;;40.38;21.13;;;;;;;;;;6247445;23;20439;-94
2022/03/06 20:26:56;;;;;;;24.33;13.75;;;;;;;;;;6247733;23;20000;-93
2022/03/06 20:29:21;;;;;;;30.10;15.55;;;;;;;;;;6249988;23;20004;-93
2022/03/06 20:31:47;;;;;;;23.55;14.35;;;;;;;;;;6249054;23;20008;-92
2022/03/06 20:34:13;;;;;;;31.30;17.13;;;;;;;;;;6247457;23;20309;-90
2022/03/06 20:36:38;;;;;;;42.72;19.98;;;;;;;;;;6247160;23;20009;-93
2022/03/06 20:39:04;;;;;;;107.63;47.13;;;;;;;;;;6247854;23;19996;-93
2022/03/06 20:41:30;;;;;;;26.00;14.98;;;;;;;;;;6247169;23;20008;-92
2022/03/06 20:43:56;;;;;;;21.90;13.35;;;;;;;;;;6247022;23;20450;-92
2022/03/06 20:46:24;;;;;;;26.50;14.45;;;;;;;;;;6246937;23;20054;-91
2022/03/06 20:48:54;;;;;;;23.45;13.95;;;;;;;;;;6247100;23;20015;-91
2022/03/06 20:51:21;;;;;;;26.88;14.60;;;;;;;;;;6246908;23;20000;-91
2022/03/06 20:53:50;;;;;;;24.25;13.82;;;;;;;;;;6247007;23;20008;-91
2022/03/06 20:56:20;;;;;;;25.58;15.25;;;;;;;;;;6247074;23;20004;-91
2022/03/06 20:58:46;;;;;;;22.38;13.85;;;;;;;;;;6246856;23;20004;-91
2022/03/06 21:01:12;;;;;;;22.25;13.48;;;;;;;;;;6247095;23;20046;-91
2022/03/06 21:03:37;;;;;;;28.65;15.38;;;;;;;;;;6246779;23;20008;-91
2022/03/06 21:06:03;;;;;;;22.48;13.88;;;;;;;;;;6246731;23;20000;-92
2022/03/06 21:08:28;;;;;;;24.00;14.05;;;;;;;;;;6247114;23;20034;-91
2022/03/06 21:10:54;;;;;;;23.25;13.55;;;;;;;;;;6247248;23;20055;-91
2022/03/06 21:13:19;;;;;;;24.17;13.57;;;;;;;;;;6247086;23;20008;-91
2022/03/06 21:15:46;;;;;;;26.33;13.82;;;;;;;;;;6246253;23;20035;-91
2022/03/06 21:18:13;;;;;;;27.23;14.52;;;;;;;;;;6246782;23;20024;-91
2022/03/06 21:20:40;;;;;;;23.50;14.18;;;;;;;;;;6246922;23;20008;-91
2022/03/06 21:23:06;;;;;;;23.80;13.40;;;;;;;;;;6246710;23;20059;-91
2022/03/06 21:25:31;;;;;;;23.77;14.70;;;;;;;;;;6246617;23;20320;-91
2022/03/06 21:27:57;;;;;;;23.13;13.57;;;;;;;;;;6247011;23;20038;-92
2022/03/06 21:30:22;;;;;;;24.20;13.75;;;;;;;;;;6247165;23;20099;-92
2022/03/06 21:32:48;;;;;;;21.83;12.73;;;;;;;;;;6247092;23;20004;-92
2022/03/06 21:35:14;;;;;;;22.45;13.20;;;;;;;;;;6246007;23;20493;-93
2022/03/06 21:37:39;;;;;;;24.00;12.95;;;;;;;;;;6246906;23;20004;-90
2022/03/06 21:40:06;;;;;;;21.38;13.25;;;;;;;;;;6246965;23;20050;-93
2022/03/06 21:42:31;;;;;;;25.27;14.20;;;;;;;;;;6247315;23;20011;-92
2022/03/06 21:44:57;;;;;;;25.17;14.82;;;;;;;;;;6246661;23;20005;-93
2022/03/06 21:47:22;;;;;;;25.33;12.93;;;;;;;;;;6246682;23;20008;-92
2022/03/06 21:49:48;;;;;;;25.52;14.27;;;;;;;;;;6247118;23;20056;-93
2022/03/06 21:52:13;;;;;;;29.40;15.85;;;;;;;;;;6246787;23;20404;-93
2022/03/06 21:54:39;;;;;;;23.83;14.18;;;;;;;;;;6246597;23;20058;-91
2022/03/06 21:57:05;;;;;;;22.55;13.60;;;;;;;;;;6246855;23;20011;-92
2022/03/06 21:59:30;;;;;;;25.98;14.55;;;;;;;;;;6246752;23;20004;-91
2022/03/06 22:01:57;;;;;;;22.95;14.13;;;;;;;;;;6246296;23;20435;-92
2022/03/06 22:04:23;;;;;;;25.10;14.32;;;;;;;;;;6246269;23;20004;-92
2022/03/06 22:06:49;;;;;;;23.45;14.27;;;;;;;;;;6246697;23;20032;-92
2022/03/06 22:09:16;;;;;;;25.60;13.43;;;;;;;;;;6246753;23;20004;-92
2022/03/06 22:11:41;;;;;;;25.25;14.75;;;;;;;;;;6246486;23;20008;-92
2022/03/06 22:14:07;;;;;;;24.20;15.32;;;;;;;;;;6246243;23;20353;-91
2022/03/06 22:16:34;;;;;;;24.45;14.60;;;;;;;;;;6246317;23;20012;-92
2022/03/06 22:19:00;;;;;;;27.40;15.02;;;;;;;;;;6246233;23;20457;-92
2022/03/06 22:21:27;;;;;;;21.88;13.55;;;;;;;;;;6247065;23;20004;-93
2022/03/06 22:23:53;;;;;;;26.98;13.93;;;;;;;;;;6246793;23;20004;-92
2022/03/06 22:26:20;;;;;;;25.95;13.95;;;;;;;;;;6246833;23;20065;-91
2022/03/06 22:28:48;;;;;;;27.60;15.27;;;;;;;;;;6246696;23;20438;-92
2022/03/06 22:31:15;;;;;;;22.85;14.00;;;;;;;;;;6246565;23;20054;-91
2022/03/06 22:33:41;;;;;;;23.88;14.05;;;;;;;;;;6247076;23;20008;-90
2022/03/06 22:36:08;;;;;;;24.65;13.60;;;;;;;;;;6246553;23;20058;-92
2022/03/06 22:38:35;;;;;;;24.80;13.35;;;;;;;;;;6246636;23;20004;-91
2022/03/06 22:41:01;;;;;;;27.10;14.23;;;;;;;;;;6247006;23;20008;-91
2022/03/06 22:43:27;;;;;;;25.25;14.18;;;;;;;;;;6246703;23;20008;-93
2022/03/06 22:45:53;;;;;;;27.02;13.98;;;;;;;;;;6246839;23;20062;-93
2022/03/06 22:48:19;;;;;;;22.15;13.13;;;;;;;;;;6248178;23;19996;-92
2022/03/06 22:50:44;;;;;;;24.23;13.82;;;;;;;;;;6248512;23;20000;-92
2022/03/06 22:53:17;;;;;;;28.98;15.45;;;;;;;;;;6249157;23;20007;-91
2022/03/06 22:55:43;;;;;;;23.77;14.02;;;;;;;;;;6248717;23;20004;-91
2022/03/06 22:58:09;;;;;;;23.70;14.30;;;;;;;;;;6249239;23;20004;-91
2022/03/06 23:00:38;;;;;;;27.30;13.98;;;;;;;;;;6248434;23;20079;-92
2022/03/06 23:03:04;;;;;;;25.73;14.98;;;;;;;;;;6248791;23;20091;-92
2022/03/06 23:08:14;;;;;;;23.42;13.27;;;;;;;;;;6251070;23;20016;-91
2022/03/06 23:10:40;;;;;;;25.88;14.07;;;;;;;;;;6247849;23;20008;-92
2022/03/06 23:13:06;;;;;;;23.60;14.25;;;;;;;;;;6248204;23;20012;-91
2022/03/06 23:15:31;;;;;;;23.75;14.10;;;;;;;;;;6247933;23;20000;-91
2022/03/06 23:17:57;;;;;;;24.17;13.90;;;;;;;;;;6250439;22;20008;-91
2022/03/06 23:20:22;;;;;;;24.63;14.57;;;;;;;;;;6252935;22;20087;-92
2022/03/06 23:22:49;;;;;;;27.73;15.43;;;;;;;;;;6253004;22;20007;-92
2022/03/06 23:25:16;;;;;;;24.88;13.50;;;;;;;;;;6252874;22;20422;-91
2022/03/06 23:27:42;;;;;;;26.13;15.45;;;;;;;;;;6252983;22;20027;-92
2022/03/06 23:30:07;;;;;;;24.10;14.63;;;;;;;;;;6253014;22;20488;-92
2022/03/06 23:32:33;;;;;;;26.63;14.13;;;;;;;;;;6252910;22;20075;-92
2022/03/06 23:34:58;;;;;;;29.80;15.48;;;;;;;;;;6252919;22;19996;-92
2022/03/06 23:37:24;;;;;;;24.75;14.20;;;;;;;;;;6252940;22;20008;-91
2022/03/06 23:39:49;;;;;;;27.25;14.80;;;;;;;;;;6253058;22;20077;-91
2022/03/06 23:42:15;;;;;;;24.75;13.65;;;;;;;;;;6252672;22;20090;-91
2022/03/06 23:44:41;;;;;;;26.17;14.77;;;;;;;;;;6252925;22;20097;-92
2022/03/06 23:47:06;;;;;;;23.63;13.45;;;;;;;;;;6252864;22;20090;-94
